Time;durP1;ratioP1;P1;durP2;ratioP2;P2;SDS_P1;SDS_P2;PMS_P1;PMS_P2;Temp;Humidity;BMP_temperature;BMP_pressure;BME280_temperature;BME280_humidity;BME280_pressure;Samples;Min_cycle;Max_cycle;Signal;HPM_P1;HPM_P2
2023/04/14 05:00:13;;;;;;;;;;;;;;;7.12;78.38;97272.94;5223396;23;20318;-64
2023/04/14 05:02:39;;;;;;;;;;;;;;;7.10;75.23;97277.47;4972033;28;19922;-65
2023/04/14 05:05:04;;;;;;;;;;;;;;;7.33;76.90;97281.91;4972716;28;20413;-64
2023/04/14 05:07:30;;;;;;;;;;;;;;;7.57;77.32;97283.72;4969412;28;20016;-66
2023/04/14 05:09:55;;;;;;;;;;;;;;;7.49;72.16;97280.81;4975326;28;20359;-63
2023/04/14 05:12:21;;;;;;;;;;;;;;;7.36;72.02;97289.53;4971852;28;20465;-65
2023/04/14 05:14:46;;;;;;;;;;;;;;;7.12;72.71;97283.38;4974469;28;19918;-63
2023/04/14 05:17:11;;;;;;;;;;;;;;;6.99;73.74;97287.81;4973685;28;19925;-62
2023/04/14 05:19:37;;;;;;;;;;;;;;;6.84;73.34;97289.66;4969974;28;19918;-64
2023/04/14 05:22:03;;;;;;;;;;;;;;;6.55;74.65;97287.25;4973941;28;19914;-63
2023/04/14 05:24:28;;;;;;;;;;;;;;;6.51;76.22;97293.63;4970988;28;20394;-63
2023/04/14 05:26:53;;;;;;;;;;;;;;;6.54;75.78;97290.81;4973969;28;20570;-63
2023/04/14 05:29:18;;;;;;;;;;;;;;;6.48;75.43;97290.38;4971176;28;20397;-66
2023/04/14 05:31:43;;;;;;;;;;;;;;;6.61;78.18;97297.28;4969143;28;20407;-64
2023/04/14 05:34:09;;;;;;;;;;;;;;;6.81;80.58;97297.69;4972520;28;19922;-64
2023/04/14 05:36:34;;;;;;;;;;;;;;;6.95;79.25;97302.81;4972785;28;19922;-64
2023/04/14 05:39:00;;;;;;;;;;;;;;;7.13;79.08;97311.97;4972794;28;19957;-64
2023/04/14 05:41:25;;;;;;;;;;;;;;;7.19;78.50;97315.94;4973009;28;19918;-63
2023/04/14 05:43:50;;;;;;;;;;;;;;;7.36;80.54;97307.78;4974073;28;19972;-63
2023/04/14 05:46:16;;;;;;;;;;;;;;;7.45;79.90;97303.69;4973643;28;19961;-64
2023/04/14 05:48:41;;;;;;;;;;;;;;;7.36;74.74;97302.56;4969917;28;19918;-65
2023/04/14 05:51:06;;;;;;;;;;;;;;;7.23;74.92;97298.31;4972527;28;19918;-64
2023/04/14 05:53:32;;;;;;;;;;;;;;;7.12;74.14;97294.66;4970393;28;19933;-64
2023/04/14 05:55:57;;;;;;;;;;;;;;;6.93;73.83;97288.22;4968472;28;19969;-64
2023/04/14 05:58:25;;;;;;;;;;;;;;;6.70;74.46;97282.78;4974266;28;19957;-63
2023/04/14 06:00:50;;;;;;;;;;;;;;;6.59;75.71;97286.09;4971467;28;19925;-63
2023/04/14 06:03:15;;;;;;;;;;;;;;;6.53;75.35;97283.06;4973070;28;19918;-64
2023/04/14 06:05:40;;;;;;;;;;;;;;;6.48;76.15;97288.59;4970744;28;19941;-64
2023/04/14 06:08:06;;;;;;;;;;;;;;;6.49;76.60;97297.25;4971881;28;19924;-64
2023/04/14 06:10:31;;;;;;;;;;;;;;;6.51;76.31;97293.63;4962440;28;19922;-66
2023/04/14 06:12:56;;;;;;;;;;;;;;;6.53;76.52;97301.31;4960702;28;19946;-66
2023/04/14 06:15:25;;;;;;;;;;;;;;;6.55;76.25;97299.44;4967765;28;19922;-65
2023/04/14 06:17:51;;;;;;;;;;;;;;;6.56;76.60;97299.34;4970760;28;20352;-66
2023/04/14 06:20:17;;;;;;;;;;;;;;;6.58;76.57;97305.28;4971427;28;19922;-64
2023/04/14 06:22:42;;;;;;;;;;;;;;;6.49;76.37;97303.28;4971327;28;19914;-65
2023/04/14 06:25:09;;;;;;;;;;;;;;;6.52;76.54;97297.03;4971867;28;20298;-64
2023/04/14 06:27:35;;;;;;;;;;;;;;;6.52;76.71;97295.28;4970253;28;19968;-65
2023/04/14 06:30:00;;;;;;;;;;;;;;;6.50;75.95;97291.09;4971856;28;19953;-65
2023/04/14 06:32:25;;;;;;;;;;;;;;;6.53;76.52;97290.88;4974041;28;20544;-65
2023/04/14 06:34:50;;;;;;;;;;;;;;;6.58;76.77;97291.44;4973502;28;20295;-63
2023/04/14 06:37:16;;;;;;;;;;;;;;;6.64;75.74;97288.38;4973903;28;19914;-64
2023/04/14 06:39:41;;;;;;;;;;;;;;;6.73;75.75;97290.38;4972921;28;19922;-64
2023/04/14 06:42:06;;;;;;;;;;;;;;;6.79;75.39;97297.81;4971683;28;19922;-66
2023/04/14 06:44:31;;;;;;;;;;;;;;;6.83;75.51;97288.84;4973882;28;19925;-67
2023/04/14 06:46:57;;;;;;;;;;;;;;;6.97;75.23;97289.66;4971763;28;19918;-65
2023/04/14 06:49:23;;;;;;;;;;;;;;;7.10;75.26;97290.50;4971433;28;19914;-67
2023/04/14 06:51:48;;;;;;;;;;;;;;;7.21;74.10;97287.13;4972552;28;20366;-66
2023/04/14 06:54:13;;;;;;;;;;;;;;;7.30;73.55;97295.16;4973083;28;19921;-65
2023/04/14 06:56:38;;;;;;;;;;;;;;;7.42;73.70;97290.03;4973165;28;19914;-65
2023/04/14 06:59:04;;;;;;;;;;;;;;;7.45;72.79;97285.41;4972448;28;19918;-64
2023/04/14 07:01:29;;;;;;;;;;;;;;;7.45;73.09;97284.59;4971294;28;19914;-64
2023/04/14 07:03:54;;;;;;;;;;;;;;;7.47;73.18;97286.16;4970590;28;19924;-64
2023/04/14 07:06:20;;;;;;;;;;;;;;;7.54;72.98;97278.75;4971075;28;19918;-63
2023/04/14 07:08:45;;;;;;;;;;;;;;;7.63;73.09;97280.66;4973352;28;19914;-65
2023/04/14 07:11:10;;;;;;;;;;;;;;;7.70;71.90;97279.28;4967056;28;20514;-63
2023/04/14 07:13:36;;;;;;;;;;;;;;;7.74;71.78;97275.53;4970144;28;19911;-63
2023/04/14 07:16:01;;;;;;;;;;;;;;;7.70;70.68;97274.06;4972480;28;19928;-64
2023/04/14 07:18:27;;;;;;;;;;;;;;;7.73;71.00;97280.84;4972186;28;19925;-63
2023/04/14 07:20:53;;;;;;;;;;;;;;;7.79;72.13;97278.63;4972626;28;20402;-63
2023/04/14 07:23:18;;;;;;;;;;;;;;;7.84;71.40;97281.75;4965392;28;19993;-62
2023/04/14 07:25:43;;;;;;;;;;;;;;;7.93;72.37;97282.03;4970696;28;19922;-63
2023/04/14 07:28:08;;;;;;;;;;;;;;;8.07;71.78;97279.25;4972246;28;19918;-64
2023/04/14 07:30:34;;;;;;;;;;;;;;;8.16;72.20;97286.41;4972742;28;19961;-64
2023/04/14 07:32:59;;;;;;;;;;;;;;;8.24;71.24;97288.47;4969161;28;19918;-65
2023/04/14 07:35:25;;;;;;;;;;;;;;;8.19;70.41;97291.41;4964801;28;19922;-65
2023/04/14 07:37:51;;;;;;;;;;;;;;;8.09;70.26;97285.19;4971662;28;19964;-64
2023/04/14 07:40:16;;;;;;;;;;;;;;;8.09;69.96;97288.63;4970068;28;19961;-63
2023/04/14 07:42:42;;;;;;;;;;;;;;;8.07;70.38;97284.47;4971551;28;19961;-64
2023/04/14 07:45:07;;;;;;;;;;;;;;;8.15;70.21;97289.13;4973077;28;19915;-64
2023/04/14 07:47:32;;;;;;;;;;;;;;;8.15;70.67;97289.13;4971839;28;20371;-64
2023/04/14 07:49:58;;;;;;;;;;;;;;;8.27;71.04;97289.06;4970560;28;20154;-62
2023/04/14 07:52:23;;;;;;;;;;;;;;;8.42;69.84;97289.72;4972391;28;20383;-64
2023/04/14 07:54:48;;;;;;;;;;;;;;;8.59;69.62;97285.88;4971820;28;19918;-64
2023/04/14 07:57:13;;;;;;;;;;;;;;;8.62;69.01;97283.03;4971944;28;19988;-63
2023/04/14 07:59:41;;;;;;;;;;;;;;;8.68;68.74;97285.19;4970268;28;19958;-64
2023/04/14 08:02:07;;;;;;;;;;;;;;;8.86;69.29;97280.34;4971548;28;20082;-65
2023/04/14 08:04:32;;;;;;;;;;;;;;;8.96;68.12;97283.91;4970743;28;20037;-65
2023/04/14 08:06:57;;;;;;;;;;;;;;;9.04;67.89;97286.75;4972498;28;19960;-64
2023/04/14 08:09:22;;;;;;;;;;;;;;;9.11;67.43;97274.03;4971596;28;19919;-66
2023/04/14 08:11:47;;;;;;;;;;;;;;;9.20;67.40;97273.34;4972739;28;20009;-64
2023/04/14 08:14:13;;;;;;;;;;;;;;;9.35;67.39;97273.09;4974510;28;19918;-65
2023/04/14 08:16:38;;;;;;;;;;;;;;;9.51;67.39;97268.31;4974904;28;20016;-64
2023/04/14 08:19:03;;;;;;;;;;;;;;;9.67;67.61;97274.00;4976256;28;19993;-65
2023/04/14 08:21:28;;;;;;;;;;;;;;;9.79;66.52;97274.81;4974217;28;20399;-65
2023/04/14 08:23:54;;;;;;;;;;;;;;;9.83;66.97;97276.22;4975172;28;19914;-64
2023/04/14 08:26:20;;;;;;;;;;;;;;;9.94;65.65;97286.69;4973850;28;19918;-64
2023/04/14 08:28:45;;;;;;;;;;;;;;;9.96;64.44;97286.56;4975229;28;19927;-65
2023/04/14 08:31:11;;;;;;;;;;;;;;;9.93;64.78;97278.94;4975008;28;19922;-64
2023/04/14 08:33:36;;;;;;;;;;;;;;;9.98;64.50;97285.47;4975797;28;20012;-64
2023/04/14 08:36:01;;;;;;;;;;;;;;;10.07;64.50;97278.66;4973847;28;19981;-67
2023/04/14 08:38:27;;;;;;;;;;;;;;;10.06;64.20;97271.75;4974932;28;19918;-65
2023/04/14 08:40:53;;;;;;;;;;;;;;;10.05;63.52;97264.00;4975506;28;19914;-65
2023/04/14 08:43:18;;;;;;;;;;;;;;;9.99;64.33;97262.72;4974705;28;19933;-66
2023/04/14 08:45:44;;;;;;;;;;;;;;;9.97;64.69;97265.47;4975130;28;20374;-64
2023/04/14 08:48:09;;;;;;;;;;;;;;;10.00;63.87;97282.72;4973832;28;19958;-66
2023/04/14 08:50:41;;;;;;;;;;;;;;;10.04;64.16;97278.91;4957527;28;20311;-66
2023/04/14 08:53:07;;;;;;;;;;;;;;;10.20;63.77;97278.50;4973986;28;20306;-66
2023/04/14 08:55:32;;;;;;;;;;;;;;;10.38;62.77;97276.19;4973833;28;19922;-66
2023/04/14 08:57:58;;;;;;;;;;;;;;;10.53;61.98;97276.69;4966560;28;20488;-66
2023/04/14 09:00:24;;;;;;;;;;;;;;;10.64;61.89;97281.91;4975221;28;19935;-67
2023/04/14 09:02:49;;;;;;;;;;;;;;;10.70;61.12;97297.09;4973482;28;19940;-66
2023/04/14 09:05:14;;;;;;;;;;;;;;;10.71;60.49;97305.81;4967658;28;19918;-66
2023/04/14 09:07:41;;;;;;;;;;;;;;;10.63;61.09;97302.03;4975423;28;19914;-64
2023/04/14 09:10:07;;;;;;;;;;;;;;;10.48;60.66;97295.44;4969010;28;19921;-66
2023/04/14 09:12:32;;;;;;;;;;;;;;;10.36;60.45;97288.59;4974386;28;19941;-65
2023/04/14 09:14:57;;;;;;;;;;;;;;;10.41;60.33;97291.66;4956699;28;19918;-63
2023/04/14 09:17:24;;;;;;;;;;;;;;;10.48;59.13;97286.75;4975719;28;20364;-63
2023/04/14 09:19:50;;;;;;;;;;;;;;;10.46;60.15;97284.25;4969595;28;20332;-64
2023/04/14 09:22:15;;;;;;;;;;;;;;;10.48;60.16;97290.19;4973422;28;19972;-65
2023/04/14 09:24:40;;;;;;;;;;;;;;;10.56;60.02;97290.38;4971912;28;20372;-65
2023/04/14 09:27:06;;;;;;;;;;;;;;;10.61;60.45;97288.22;4974052;28;20030;-65
2023/04/14 09:29:32;;;;;;;;;;;;;;;10.65;59.71;97297.50;4967628;28;20004;-64
2023/04/14 09:31:57;;;;;;;;;;;;;;;10.67;59.57;97308.69;4974272;28;19918;-65
2023/04/14 09:34:22;;;;;;;;;;;;;;;10.75;59.74;97315.09;4974081;28;19945;-66
2023/04/14 09:37:15;;;;;;;;;;;;;;;10.73;59.39;97303.88;4974232;28;19914;-66
2023/04/14 09:39:46;;;;;;;;;;;;;;;10.82;59.19;97301.31;4971243;28;19962;-63
2023/04/14 09:42:12;;;;;;;;;;;;;;;10.74;59.33;97298.53;4973414;28;19957;-63
2023/04/14 09:44:53;;;;;;;;;;;;;;;10.88;59.52;97300.00;4973401;28;20568;-63
2023/04/14 09:47:19;;;;;;;;;;;;;;;10.96;58.87;97291.47;4973744;28;19918;-63
2023/04/14 09:49:54;;;;;;;;;;;;;;;11.04;58.87;97289.00;4974718;28;19921;-64
2023/04/14 09:52:20;;;;;;;;;;;;;;;11.08;58.86;97291.25;4974374;28;19965;-63
2023/04/14 09:54:45;;;;;;;;;;;;;;;11.13;58.52;97294.31;4973761;28;19918;-63
2023/04/14 09:57:10;;;;;;;;;;;;;;;11.24;58.10;97289.94;4972733;28;19918;-63
2023/04/14 09:59:36;;;;;;;;;;;;;;;11.27;57.93;97292.31;4974523;28;20368;-63
2023/04/14 10:02:05;;;;;;;;;;;;;;;11.39;57.22;97293.91;4974033;28;19929;-62
2023/04/14 10:04:31;;;;;;;;;;;;;;;11.31;57.15;97291.91;4971967;28;20399;-64
2023/04/14 10:06:59;;;;;;;;;;;;;;;11.36;57.42;97287.09;4973169;28;19918;-61
2023/04/14 10:09:26;;;;;;;;;;;;;;;11.41;57.21;97286.69;4975101;28;19914;-64
2023/04/14 10:12:13;;;;;;;;;;;;;;;11.49;56.76;97278.97;4973087;28;19918;-64
2023/04/14 10:14:39;;;;;;;;;;;;;;;11.61;56.01;97266.59;4973978;28;20355;-64
2023/04/14 10:17:04;;;;;;;;;;;;;;;11.71;56.29;97258.72;4972931;28;19918;-63
2023/04/14 10:19:29;;;;;;;;;;;;;;;11.81;55.23;97259.59;4972930;28;19918;-64
2023/04/14 10:21:56;;;;;;;;;;;;;;;11.94;54.29;97249.69;4967933;28;19925;-64
2023/04/14 10:24:21;;;;;;;;;;;;;;;12.20;53.87;97246.50;4974013;28;19914;-63
2023/04/14 10:26:48;;;;;;;;;;;;;;;12.41;52.99;97243.72;4965906;28;19918;-63
2023/04/14 10:29:13;;;;;;;;;;;;;;;12.71;52.99;97242.72;4968021;28;19978;-63
2023/04/14 10:31:39;;;;;;;;;;;;;;;13.11;52.71;97233.72;4967759;28;19918;-64
2023/04/14 10:34:10;;;;;;;;;;;;;;;13.44;51.78;97238.44;4972488;28;19964;-64
2023/04/14 10:36:36;;;;;;;;;;;;;;;13.41;51.38;97228.19;4967964;28;19921;-64
2023/04/14 10:39:01;;;;;;;;;;;;;;;13.49;50.70;97225.69;4956149;28;19953;-64
2023/04/14 10:41:27;;;;;;;;;;;;;;;13.52;50.51;97233.28;4972309;28;19924;-67
2023/04/14 10:43:52;;;;;;;;;;;;;;;13.57;49.77;97232.03;4973500;28;19973;-66
2023/04/14 10:46:18;;;;;;;;;;;;;;;13.87;49.73;97217.69;4973554;28;19918;-65
2023/04/14 10:48:44;;;;;;;;;;;;;;;14.25;48.54;97217.38;4973290;28;19922;-66
2023/04/14 10:51:10;;;;;;;;;;;;;;;14.46;47.35;97218.84;4974497;28;19914;-63
2023/04/14 10:53:36;;;;;;;;;;;;;;;14.68;46.07;97225.47;4973741;28;20056;-63
2023/04/14 10:56:02;;;;;;;;;;;;;;;15.27;54.62;97218.53;4974267;28;19948;-62
2023/04/14 10:58:28;;;;;;;;;;;;;;;16.36;49.87;97207.88;4973450;28;20004;-62
2023/04/14 11:00:55;;;;;;;;;;;;;;;16.51;43.83;97208.03;4971020;28;19918;-66
2023/04/14 11:03:20;;;;;;;;;;;;;;;15.95;42.80;97201.75;4972412;28;19925;-67
2023/04/14 11:05:51;;;;;;;;;;;;;;;15.93;43.44;97197.59;4972739;28;19918;-66
2023/04/14 11:08:23;;;;;;;;;;;;;;;15.95;43.22;97200.94;4967968;28;19949;-67
2023/04/14 11:10:49;;;;;;;;;;;;;;;16.00;42.49;97201.25;4956516;28;19921;-66
2023/04/14 11:13:15;;;;;;;;;;;;;;;15.70;42.81;97194.78;4973372;28;20383;-66
2023/04/14 11:15:44;;;;;;;;;;;;;;;15.41;43.56;97198.59;4973609;28;20056;-66
2023/04/14 11:18:09;;;;;;;;;;;;;;;15.02;44.38;97200.94;4969319;28;20446;-66
2023/04/14 11:20:34;;;;;;;;;;;;;;;14.55;44.92;97203.94;4972580;28;19914;-65
2023/04/14 11:23:00;;;;;;;;;;;;;;;14.27;45.02;97206.66;4970950;28;20203;-66
2023/04/14 11:25:25;;;;;;;;;;;;;;;14.43;45.33;97200.69;4973200;28;19941;-65
2023/04/14 11:27:50;;;;;;;;;;;;;;;14.32;45.70;97190.41;4972304;28;19924;-67
2023/04/14 11:30:16;;;;;;;;;;;;;;;14.34;45.97;97194.50;4972703;28;19954;-66
2023/04/14 11:32:46;;;;;;;;;;;;;;;14.09;46.62;97195.31;4970707;28;20004;-64
2023/04/14 11:35:11;;;;;;;;;;;;;;;14.14;47.39;97193.88;4972429;28;19922;-65
2023/04/14 11:37:37;;;;;;;;;;;;;;;14.31;46.90;97194.00;4971394;28;20025;-64
2023/04/14 11:40:04;;;;;;;;;;;;;;;14.33;46.76;97192.88;4972341;28;19957;-65
2023/04/14 11:42:30;;;;;;;;;;;;;;;14.23;47.21;97192.13;4972482;28;19925;-65
2023/04/14 11:44:58;;;;;;;;;;;;;;;14.24;46.85;97191.97;4971846;28;19922;-65
2023/04/14 11:47:23;;;;;;;;;;;;;;;14.37;46.19;97186.28;4971000;28;20319;-64
2023/04/14 11:49:48;;;;;;;;;;;;;;;14.45;45.92;97181.09;4972722;28;20414;-65
2023/04/14 11:52:13;;;;;;;;;;;;;;;14.42;46.00;97172.66;4974295;28;20396;-65
2023/04/14 11:54:39;;;;;;;;;;;;;;;14.49;45.96;97166.59;4972591;28;19914;-64
2023/04/14 11:57:08;;;;;;;;;;;;;;;14.49;45.31;97160.50;4971907;28;20012;-65
2023/04/14 11:59:40;;;;;;;;;;;;;;;14.33;46.09;97155.13;4967874;28;19957;-65
2023/04/14 12:02:06;;;;;;;;;;;;;;;14.29;46.39;97159.88;4971301;28;19918;-65
2023/04/14 12:04:31;;;;;;;;;;;;;;;14.29;46.15;97154.59;4955152;28;19922;-65
2023/04/14 12:06:57;;;;;;;;;;;;;;;14.25;45.31;97158.53;4973148;28;19918;-63
2023/04/14 12:09:27;;;;;;;;;;;;;;;14.53;45.66;97150.50;4967724;28;20025;-66
2023/04/14 12:11:53;;;;;;;;;;;;;;;14.73;44.39;97146.66;4969489;28;20339;-65
2023/04/14 12:14:18;;;;;;;;;;;;;;;14.89;44.43;97141.44;4969707;28;20388;-65
2023/04/14 12:16:43;;;;;;;;;;;;;;;15.02;43.14;97145.47;4968057;28;19922;-62
2023/04/14 12:19:09;;;;;;;;;;;;;;;15.06;42.48;97142.34;4965891;28;19918;-65
2023/04/14 12:21:34;;;;;;;;;;;;;;;15.02;42.63;97137.56;4970426;28;20391;-64
2023/04/14 12:23:59;;;;;;;;;;;;;;;15.16;43.01;97131.66;4970509;28;20376;-64
2023/04/14 12:26:24;;;;;;;;;;;;;;;15.30;42.62;97133.69;4972465;28;20009;-63
2023/04/14 12:28:56;;;;;;;;;;;;;;;15.21;42.86;97129.38;4972908;28;20018;-63
2023/04/14 12:31:28;;;;;;;;;;;;;;;15.00;42.27;97132.41;4971367;28;20382;-64
2023/04/14 12:33:58;;;;;;;;;;;;;;;15.03;42.90;97131.28;4972385;28;19918;-64
2023/04/14 12:36:23;;;;;;;;;;;;;;;15.31;42.46;97124.78;4970971;28;19925;-65
2023/04/14 12:38:48;;;;;;;;;;;;;;;15.47;42.08;97112.59;4971797;28;19926;-65
2023/04/14 12:41:20;;;;;;;;;;;;;;;15.54;41.47;97108.31;4971919;28;19930;-63
2023/04/14 12:43:46;;;;;;;;;;;;;;;15.54;41.46;97103.84;4971039;28;19918;-63
2023/04/14 12:46:16;;;;;;;;;;;;;;;15.58;41.71;97099.06;4971263;28;19964;-63
2023/04/14 12:48:43;;;;;;;;;;;;;;;15.43;41.20;97093.59;4971442;28;20395;-62
2023/04/14 12:51:12;;;;;;;;;;;;;;;15.41;41.58;97088.44;4963804;28;19918;-63
2023/04/14 12:53:37;;;;;;;;;;;;;;;15.27;41.17;97091.72;4972879;28;20383;-62
2023/04/14 12:56:06;;;;;;;;;;;;;;;15.34;40.98;97092.75;4971870;28;19922;-62
2023/04/14 12:58:32;;;;;;;;;;;;;;;15.28;40.42;97088.13;4973533;28;20300;-63
2023/04/14 13:00:57;;;;;;;;;;;;;;;15.30;39.91;97082.66;4974451;28;19926;-64
2023/04/14 13:03:22;;;;;;;;;;;;;;;15.46;40.26;97079.25;4976400;28;19914;-65
2023/04/14 13:05:48;;;;;;;;;;;;;;;15.49;40.73;97078.91;4975372;28;19925;-64
2023/04/14 13:08:13;;;;;;;;;;;;;;;15.59;41.05;97074.31;4974446;28;20098;-65
2023/04/14 13:10:38;;;;;;;;;;;;;;;15.56;40.37;97074.63;4973751;28;19922;-66
2023/04/14 13:13:03;;;;;;;;;;;;;;;15.44;39.26;97077.56;4976191;28;19914;-63
2023/04/14 13:15:31;;;;;;;;;;;;;;;15.49;40.34;97071.81;4975285;28;19929;-64
2023/04/14 13:17:56;;;;;;;;;;;;;;;15.48;40.08;97069.31;4975530;28;20295;-65
2023/04/14 13:20:21;;;;;;;;;;;;;;;15.37;40.64;97071.28;4974395;28;19933;-64
2023/04/14 13:22:46;;;;;;;;;;;;;;;15.39;40.57;97074.59;4975042;28;19918;-65
2023/04/14 13:25:12;;;;;;;;;;;;;;;15.43;39.95;97068.00;4976263;28;19918;-63
2023/04/14 13:27:37;;;;;;;;;;;;;;;15.29;38.19;97067.81;4974306;28;20303;-65
2023/04/14 13:30:02;;;;;;;;;;;;;;;15.10;38.32;97056.53;4973322;28;19926;-65
2023/04/14 13:32:27;;;;;;;;;;;;;;;15.22;39.64;97062.34;4975035;28;19924;-65
2023/04/14 13:34:53;;;;;;;;;;;;;;;15.27;40.33;97060.03;4974668;28;19968;-65
2023/04/14 13:37:18;;;;;;;;;;;;;;;15.34;40.81;97061.03;4975640;28;19914;-63
2023/04/14 13:39:43;;;;;;;;;;;;;;;15.42;40.77;97058.41;4975082;28;19972;-65
2023/04/14 13:42:09;;;;;;;;;;;;;;;15.40;40.50;97055.09;4974476;28;19914;-65
2023/04/14 13:44:34;;;;;;;;;;;;;;;15.38;39.88;97043.91;4973273;28;19922;-65
2023/04/14 13:46:59;;;;;;;;;;;;;;;15.44;38.84;97050.31;4974079;28;20307;-60
2023/04/14 13:49:25;;;;;;;;;;;;;;;15.41;39.33;97059.38;4973881;28;19925;-63
2023/04/14 13:51:50;;;;;;;;;;;;;;;15.63;40.29;97044.72;4974419;28;19972;-63
2023/04/14 13:54:15;;;;;;;;;;;;;;;15.92;39.50;97048.69;4972526;28;20414;-64
2023/04/14 13:56:41;;;;;;;;;;;;;;;16.10;38.52;97053.81;4983618;28;20286;-62
2023/04/14 13:59:06;;;;;;;;;;;;;;;16.21;39.13;97056.13;4974935;28;20366;-65
2023/04/14 14:01:32;;;;;;;;;;;;;;;16.51;38.04;97048.41;4975836;28;19936;-63
2023/04/14 14:03:57;;;;;;;;;;;;;;;17.37;37.47;97044.06;4973865;28;19914;-63
2023/04/14 14:06:22;;;;;;;;;;;;;;;16.93;37.61;97055.22;4975250;28;19914;-62
2023/04/14 14:09:01;;;;;;;;;;;;;;;17.01;37.82;97052.56;4971999;28;19949;-64
2023/04/14 14:11:26;;;;;;;;;;;;;;;17.83;37.46;97044.09;4978674;28;19968;-64
2023/04/14 14:13:51;;;;;;;;;;;;;;;18.83;35.28;97038.41;4976874;28;19953;-63
2023/04/14 14:16:18;;;;;;;;;;;;;;;18.89;33.72;97040.31;4975038;28;19941;-63
2023/04/14 14:18:45;;;;;;;;;;;;;;;18.43;34.45;97041.31;4969239;28;20368;-64
2023/04/14 14:21:10;;;;;;;;;;;;;;;18.66;34.26;97049.19;4974131;28;20459;-63
2023/04/14 14:23:36;;;;;;;;;;;;;;;18.50;34.44;97030.78;4968205;28;19997;-61
2023/04/14 14:26:01;;;;;;;;;;;;;;;18.11;35.15;97039.00;4973800;28;20013;-62
2023/04/14 14:28:26;;;;;;;;;;;;;;;17.88;35.52;97047.00;4973776;28;20020;-64
2023/04/14 14:30:51;;;;;;;;;;;;;;;17.74;36.14;97043.28;4972776;28;19922;-64
2023/04/14 14:33:17;;;;;;;;;;;;;;;18.00;36.32;97032.31;4973640;28;19924;-65
2023/04/14 14:35:42;;;;;;;;;;;;;;;17.87;36.43;97032.09;4971972;28;19980;-64
2023/04/14 14:38:07;;;;;;;;;;;;;;;17.63;36.58;97033.94;4973990;28;19957;-64
2023/04/14 14:40:32;;;;;;;;;;;;;;;17.53;36.34;97020.09;4973413;28;19976;-65
2023/04/14 14:42:58;;;;;;;;;;;;;;;17.33;36.77;97025.84;4974661;28;19950;-66
2023/04/14 14:45:23;;;;;;;;;;;;;;;17.19;36.95;97031.91;4972623;28;20264;-63
2023/04/14 14:47:49;;;;;;;;;;;;;;;17.00;37.19;97022.59;4973114;28;20285;-64
2023/04/14 14:50:15;;;;;;;;;;;;;;;17.01;37.85;97028.72;4960576;28;20584;-63
2023/04/14 14:52:40;;;;;;;;;;;;;;;16.93;38.11;97032.25;4972780;28;19973;-62
2023/04/14 14:55:05;;;;;;;;;;;;;;;16.59;38.30;97035.16;4973772;28;19958;-62
2023/04/14 14:57:31;;;;;;;;;;;;;;;16.05;38.69;97030.50;4973998;28;19989;-62
2023/04/14 14:59:56;;;;;;;;;;;;;;;15.71;38.62;97030.72;4973371;28;19976;-62
2023/04/14 15:02:21;;;;;;;;;;;;;;;15.36;39.97;97026.53;4973296;28;19914;-61
2023/04/14 15:04:47;;;;;;;;;;;;;;;15.24;41.94;97033.13;4974050;28;19914;-63
2023/04/14 15:07:12;;;;;;;;;;;;;;;14.98;43.45;97030.59;4972410;28;19925;-62
2023/04/14 15:09:38;;;;;;;;;;;;;;;14.68;44.67;97032.81;4973376;28;19914;-62
2023/04/14 15:12:03;;;;;;;;;;;;;;;14.66;44.97;97043.53;4972363;28;19921;-62
2023/04/14 15:14:28;;;;;;;;;;;;;;;14.56;44.78;97044.66;4973648;28;19914;-62
2023/04/14 15:16:54;;;;;;;;;;;;;;;14.40;45.04;97048.81;4973310;28;19925;-61
2023/04/14 15:19:19;;;;;;;;;;;;;;;14.22;45.71;97053.34;4973163;28;19914;-62
2023/04/14 15:21:44;;;;;;;;;;;;;;;14.16;46.03;97053.97;4972545;28;19969;-62
2023/04/14 15:24:10;;;;;;;;;;;;;;;13.84;46.18;97057.22;4973386;28;20315;-62
2023/04/14 15:26:35;;;;;;;;;;;;;;;13.82;46.34;97056.53;4973473;28;19973;-62
2023/04/14 15:29:01;;;;;;;;;;;;;;;13.81;46.53;97065.41;4973101;28;19918;-63
2023/04/14 15:31:26;;;;;;;;;;;;;;;13.56;46.69;97067.00;4972982;28;19920;-63
2023/04/14 15:33:53;;;;;;;;;;;;;;;13.41;47.19;97071.97;4972044;28;19925;-62
2023/04/14 15:36:18;;;;;;;;;;;;;;;13.34;47.89;97077.03;4973226;28;20446;-62
2023/04/14 15:38:45;;;;;;;;;;;;;;;13.40;47.80;97076.44;4971965;28;19922;-62
2023/04/14 15:41:11;;;;;;;;;;;;;;;13.20;48.29;97074.88;4970411;28;19926;-60
2023/04/14 15:43:36;;;;;;;;;;;;;;;13.14;48.13;97072.84;4973011;28;19940;-63
2023/04/14 15:46:01;;;;;;;;;;;;;;;13.00;47.83;97077.63;4972956;28;19914;-62
2023/04/14 15:48:28;;;;;;;;;;;;;;;12.78;48.75;97076.22;4972753;28;19925;-63
2023/04/14 15:50:53;;;;;;;;;;;;;;;12.80;48.85;97082.19;4972832;28;20370;-62
2023/04/14 15:53:18;;;;;;;;;;;;;;;12.92;49.41;97085.44;4972962;28;19914;-63
2023/04/14 15:55:43;;;;;;;;;;;;;;;12.92;48.83;97090.69;4971750;28;19919;-63
2023/04/14 15:58:09;;;;;;;;;;;;;;;12.94;49.26;97088.75;4971425;28;19914;-63
2023/04/14 16:00:34;;;;;;;;;;;;;;;12.87;51.64;97092.09;4972695;28;19924;-62
2023/04/14 16:03:00;;;;;;;;;;;;;;;12.81;52.30;97090.91;4972784;28;20347;-63
2023/04/14 16:05:25;;;;;;;;;;;;;;;12.82;52.41;97095.19;4970807;28;20328;-63
2023/04/14 16:07:51;;;;;;;;;;;;;;;12.70;53.00;97091.09;4972580;28;20030;-62
2023/04/14 16:10:16;;;;;;;;;;;;;;;12.39;52.69;97103.66;4970545;28;19918;-62
2023/04/14 16:12:42;;;;;;;;;;;;;;;12.34;52.29;97091.78;4968762;28;19918;-64
2023/04/14 16:15:07;;;;;;;;;;;;;;;12.22;52.88;97092.94;4970706;28;19930;-61
2023/04/14 16:17:33;;;;;;;;;;;;;;;12.02;53.66;97094.75;4967691;28;20356;-62
2023/04/14 16:19:58;;;;;;;;;;;;;;;12.04;53.79;97095.47;4968306;28;19918;-65
2023/04/14 16:22:23;;;;;;;;;;;;;;;11.91;54.57;97096.72;4968127;28;19918;-63
2023/04/14 16:24:49;;;;;;;;;;;;;;;11.96;54.45;97092.69;4962539;28;19922;-66
2023/04/14 16:27:15;;;;;;;;;;;;;;;12.37;61.08;97095.91;4969574;28;19918;-63
2023/04/14 16:29:40;;;;;;;;;;;;;;;12.10;53.26;97089.63;4964246;28;19949;-64
2023/04/14 16:32:06;;;;;;;;;;;;;;;12.00;53.92;97094.06;4965521;28;20004;-65
2023/04/14 16:34:31;;;;;;;;;;;;;;;11.98;54.47;97090.75;4968706;28;19925;-63
2023/04/14 16:36:57;;;;;;;;;;;;;;;12.00;54.80;97086.19;4973267;28;19922;-63
2023/04/14 16:39:22;;;;;;;;;;;;;;;12.09;53.96;97087.97;4973799;28;20283;-62
2023/04/14 16:41:47;;;;;;;;;;;;;;;12.11;53.49;97088.66;4972647;28;19949;-63
2023/04/14 16:44:13;;;;;;;;;;;;;;;12.23;53.19;97088.50;4975526;28;19926;-61
2023/04/14 16:46:38;;;;;;;;;;;;;;;12.10;52.50;97087.00;4971089;28;19926;-62
2023/04/14 16:49:05;;;;;;;;;;;;;;;12.05;53.33;97085.78;4975510;28;19918;-62
2023/04/14 16:51:31;;;;;;;;;;;;;;;11.85;54.14;97075.28;4962581;28;19925;-63
2023/04/14 16:53:56;;;;;;;;;;;;;;;11.75;54.28;97081.50;4974731;28;19918;-62
2023/04/14 16:56:21;;;;;;;;;;;;;;;11.76;53.99;97070.84;4970250;28;20320;-62
2023/04/14 16:58:47;;;;;;;;;;;;;;;11.79;55.50;97077.63;4968396;28;19967;-61
2023/04/14 17:01:12;;;;;;;;;;;;;;;11.77;56.20;97079.56;4969622;28;19982;-62
2023/04/14 17:03:37;;;;;;;;;;;;;;;11.74;56.83;97075.41;4971908;28;19926;-62
2023/04/14 17:06:03;;;;;;;;;;;;;;;11.65;55.65;97069.19;4969709;28;19929;-62
2023/04/14 17:08:28;;;;;;;;;;;;;;;11.67;55.72;97082.19;4973256;28;19941;-63
2023/04/14 17:10:53;;;;;;;;;;;;;;;11.68;56.68;97078.59;4971992;28;19925;-62
2023/04/14 17:13:18;;;;;;;;;;;;;;;11.65;57.35;97073.63;4972292;28;19922;-63
2023/04/14 17:15:44;;;;;;;;;;;;;;;11.59;56.67;97075.00;4971097;28;19945;-61
2023/04/14 17:18:09;;;;;;;;;;;;;;;11.58;57.63;97073.34;4974091;28;20360;-61
2023/04/14 17:20:34;;;;;;;;;;;;;;;11.57;57.78;97073.50;4969780;28;19925;-61
2023/04/14 17:23:00;;;;;;;;;;;;;;;11.54;58.16;97071.97;4971983;28;19965;-62
2023/04/14 17:25:25;;;;;;;;;;;;;;;11.50;58.20;97078.47;4972418;28;19941;-62
2023/04/14 17:27:50;;;;;;;;;;;;;;;11.45;58.07;97083.28;4972365;28;19922;-62
2023/04/14 17:30:16;;;;;;;;;;;;;;;11.43;56.54;97087.88;4969922;28;19918;-62
2023/04/14 17:32:41;;;;;;;;;;;;;;;11.36;55.89;97089.38;4970516;28;19958;-62
2023/04/14 17:35:07;;;;;;;;;;;;;;;11.28;56.60;97095.28;4971038;28;19927;-61
2023/04/14 17:37:33;;;;;;;;;;;;;;;11.19;56.66;97097.94;4970070;28;19922;-62
2023/04/14 17:39:58;;;;;;;;;;;;;;;11.10;56.00;97102.19;4969509;28;19922;-63
2023/04/14 17:42:24;;;;;;;;;;;;;;;11.12;55.59;97103.72;4971218;28;19925;-63